Time;durP1;ratioP1;P1;durP2;ratioP2;P2;SDS_P1;SDS_P2;PMS_P1;PMS_P2;Temp;Humidity;BMP_temperature;BMP_pressure;BME280_temperature;BME280_humidity;BME280_pressure;Samples;Min_cycle;Max_cycle;Signal;HPM_P1;HPM_P2
2022/02/28 00:02:27;;;;;;;;;57.75;47.75;8.20;73.80;;;;;;4917843;29;8804;-68
2022/02/28 00:04:53;;;;;;;;;61.25;50.00;8.00;75.20;;;;;;4918188;29;8771;-67
2022/02/28 00:07:19;;;;;;;;;58.50;48.25;7.80;76.10;;;;;;4917829;29;9461;-68
2022/02/28 00:09:45;;;;;;;;;57.50;47.50;7.60;77.80;;;;;;4918194;29;9426;-68
2022/02/28 00:12:11;;;;;;;;;54.75;47.25;7.70;75.70;;;;;;4918185;29;8851;-70
2022/02/28 00:14:37;;;;;;;;;37.50;36.75;7.20;80.70;;;;;;4918069;29;8888;-67
2022/02/28 00:17:04;;;;;;;;;51.50;44.50;6.80;84.00;;;;;;4918058;29;8798;-68
2022/02/28 00:19:29;;;;;;;;;48.50;39.50;6.70;89.50;;;;;;4918106;29;8874;-68
2022/02/28 00:21:55;;;;;;;;;48.50;41.50;7.10;86.60;;;;;;4917851;29;8894;-68
2022/02/28 00:24:21;;;;;;;;;46.50;41.00;7.20;84.70;;;;;;4919294;29;8823;-68
2022/02/28 00:26:47;;;;;;;;;41.25;36.00;6.70;87.20;;;;;;4921458;29;8811;-69
2022/02/28 00:29:13;;;;;;;;;40.00;38.50;6.80;89.30;;;;;;4921460;29;8795;-67
2022/02/28 00:31:39;;;;;;;;;42.25;39.25;7.00;87.40;;;;;;4921434;29;8806;-67
2022/02/28 00:34:04;;;;;;;;;45.75;41.00;7.10;85.60;;;;;;4921214;29;8822;-67
2022/02/28 00:36:30;;;;;;;;;41.25;39.00;7.20;82.50;;;;;;4921409;29;8811;-68
2022/02/28 00:38:56;;;;;;;;;39.25;36.25;7.50;79.20;;;;;;4921550;29;8794;-69
2022/02/28 00:41:22;;;;;;;;;38.25;32.00;7.20;80.00;;;;;;4921204;29;9418;-68
2022/02/28 00:43:48;;;;;;;;;32.00;32.00;7.10;83.10;;;;;;4921136;29;8810;-66
2022/02/28 00:46:14;;;;;;;;;37.75;36.00;7.10;84.20;;;;;;4921433;29;8890;-67
2022/02/28 00:48:40;;;;;;;;;39.00;35.00;7.30;80.90;;;;;;4921227;29;8791;-69
2022/02/28 00:51:06;;;;;;;;;37.75;37.25;7.80;77.50;;;;;;4921095;29;8815;-68
2022/02/28 00:53:32;;;;;;;;;38.25;33.75;7.70;78.90;;;;;;4921421;29;8815;-68
2022/02/28 00:55:58;;;;;;;;;41.25;38.25;7.80;77.40;;;;;;4920989;29;8911;-68
2022/02/28 00:58:24;;;;;;;;;44.75;40.25;8.00;75.20;;;;;;4921194;29;8809;-67
2022/02/28 01:00:50;;;;;;;;;50.25;41.75;7.80;77.50;;;;;;4920844;29;8799;-68
2022/02/28 01:03:16;;;;;;;;;48.50;42.00;7.90;76.10;;;;;;4921064;29;8805;-68
2022/02/28 01:05:42;;;;;;;;;53.75;45.25;7.80;77.30;;;;;;4920760;29;9410;-68
2022/02/28 01:08:08;;;;;;;;;46.50;42.00;8.10;75.70;;;;;;4920797;29;8780;-69
2022/02/28 01:10:34;;;;;;;;;49.50;43.25;8.10;74.80;;;;;;4920717;29;8790;-68
2022/02/28 01:13:00;;;;;;;;;38.50;37.75;8.00;76.40;;;;;;4920722;29;8846;-67
2022/02/28 01:15:26;;;;;;;;;48.75;42.25;7.60;77.30;;;;;;4920673;29;8783;-69
2022/02/28 01:17:52;;;;;;;;;45.75;42.50;7.50;79.70;;;;;;4920617;29;8884;-68
2022/02/28 01:20:19;;;;;;;;;56.50;46.00;7.10;84.90;;;;;;4920854;29;9479;-67
2022/02/28 01:22:44;;;;;;;;;50.25;43.75;7.30;83.60;;;;;;4920724;29;8839;-68
2022/02/28 01:25:11;;;;;;;;;58.50;47.50;7.60;81.60;;;;;;4920435;29;9237;-68
2022/02/28 01:27:38;;;;;;;;;55.00;43.50;7.90;77.00;;;;;;4920712;29;8806;-68
2022/02/28 01:30:05;;;;;;;;;51.25;44.00;7.50;79.30;;;;;;4920411;29;8795;-68
2022/02/28 01:32:31;;;;;;;;;45.25;38.00;7.40;81.90;;;;;;4920074;29;8811;-67
2022/02/28 01:34:57;;;;;;;;;42.50;40.25;7.40;84.40;;;;;;4920596;29;8767;-67
2022/02/28 01:37:23;;;;;;;;;44.00;40.50;7.20;84.80;;;;;;4920202;29;9418;-67
2022/02/28 01:39:49;;;;;;;;;42.00;39.50;7.00;85.80;;;;;;4920232;29;8805;-69
2022/02/28 01:42:16;;;;;;;;;41.50;38.00;7.20;86.40;;;;;;4920227;29;8779;-69
2022/02/28 01:44:42;;;;;;;;;38.75;37.25;7.00;86.30;;;;;;4920334;29;8827;-67
2022/02/28 01:47:09;;;;;;;;;41.00;37.25;7.20;89.30;;;;;;4920306;29;8795;-68
2022/02/28 01:49:35;;;;;;;;;39.00;36.25;7.00;87.40;;;;;;4920136;29;8794;-69
2022/02/28 01:52:02;;;;;;;;;39.50;38.00;6.90;91.00;;;;;;4920193;29;8827;-68
2022/02/28 01:54:28;;;;;;;;;38.25;36.75;7.00;88.20;;;;;;4920041;29;8898;-68
2022/02/28 01:56:55;;;;;;;;;46.75;40.75;7.20;85.50;;;;;;4920168;29;8890;-70
2022/02/28 01:59:21;;;;;;;;;33.25;33.25;7.00;87.50;;;;;;4919879;29;8779;-69
2022/02/28 02:01:47;;;;;;;;;39.25;37.75;6.70;90.90;;;;;;4920101;29;8787;-67
2022/02/28 02:04:12;;;;;;;;;35.00;33.00;6.60;92.90;;;;;;4920037;29;8834;-70
2022/02/28 02:06:38;;;;;;;;;39.25;36.25;6.60;98.90;;;;;;4919626;29;8791;-68
2022/02/28 02:09:05;;;;;;;;;39.00;36.75;6.80;93.30;;;;;;4919910;29;8794;-69
2022/02/28 02:11:31;;;;;;;;;37.50;34.75;7.30;86.90;;;;;;4919844;29;8858;-70
2022/02/28 02:13:58;;;;;;;;;33.50;29.75;7.30;85.80;;;;;;4919794;29;8775;-70
2022/02/28 02:16:24;;;;;;;;;34.50;34.25;7.40;81.30;;;;;;4919592;29;8775;-68
2022/02/28 02:18:49;;;;;;;;;36.50;33.00;7.40;82.10;;;;;;4919634;29;8818;-68
2022/02/28 02:21:15;;;;;;;;;35.50;33.00;7.10;85.20;;;;;;4919197;29;8756;-69
2022/02/28 02:23:42;;;;;;;;;38.50;33.25;6.90;88.30;;;;;;4919679;29;8839;-70
2022/02/28 02:26:13;;;;;;;;;38.25;32.00;6.70;91.40;;;;;;4919709;29;8759;-69
2022/02/28 02:28:41;;;;;;;;;33.00;32.00;6.80;90.50;;;;;;4919687;29;9480;-71
2022/02/28 02:31:07;;;;;;;;;40.25;37.00;6.90;89.20;;;;;;4919304;29;8798;-70
2022/02/28 02:33:33;;;;;;;;;33.75;32.50;7.00;90.50;;;;;;4919246;29;8823;-70
2022/02/28 02:36:01;;;;;;;;;41.00;37.50;7.10;85.80;;;;;;4919428;29;9441;-69
2022/02/28 02:38:27;;;;;;;;;39.50;35.25;7.10;86.80;;;;;;4919212;29;8800;-69
2022/02/28 02:40:54;;;;;;;;;37.00;28.25;6.90;88.80;;;;;;4919149;29;8906;-68
2022/02/28 02:43:20;;;;;;;;;35.25;33.75;7.00;86.70;;;;;;4919117;29;8803;-70
2022/02/28 02:45:46;;;;;;;;;35.50;35.00;7.30;85.60;;;;;;4919085;29;8775;-68
2022/02/28 02:48:20;;;;;;;;;40.00;38.25;7.20;83.60;;;;;;4918808;29;8780;-71
2022/02/28 02:50:46;;;;;;;;;34.75;34.75;7.10;84.50;;;;;;4919043;29;8863;-69
2022/02/28 02:53:13;;;;;;;;;37.00;36.50;7.00;83.20;;;;;;4919576;29;8838;-69
2022/02/28 02:55:39;;;;;;;;;30.00;28.25;7.00;86.30;;;;;;4918971;29;8772;-68
2022/02/28 02:58:05;;;;;;;;;21.75;21.75;7.00;86.30;;;;;;4919130;29;8878;-68
2022/02/28 03:00:32;;;;;;;;;30.75;27.50;7.30;82.80;;;;;;4918982;29;8768;-68
2022/02/28 03:02:58;;;;;;;;;26.50;26.00;6.60;90.00;;;;;;4918726;29;8841;-69
2022/02/28 03:05:24;;;;;;;;;26.50;22.75;6.40;93.60;;;;;;4918653;29;8783;-69
2022/02/28 03:07:50;;;;;;;;;37.75;31.00;6.30;96.70;;;;;;4919108;29;8799;-68
2022/02/28 03:10:16;;;;;;;;;35.00;33.50;6.40;97.20;;;;;;4918827;29;8776;-69
2022/02/28 03:12:43;;;;;;;;;35.00;32.00;6.50;93.90;;;;;;4918829;29;8798;-68
2022/02/28 03:15:09;;;;;;;;;28.50;28.00;6.50;94.80;;;;;;4918565;29;8784;-69
2022/02/28 03:17:35;;;;;;;;;31.75;30.25;6.60;92.30;;;;;;4918596;29;8790;-68
2022/02/28 03:20:01;;;;;;;;;34.00;33.00;6.90;90.80;;;;;;4918729;29;8874;-69
2022/02/28 03:22:27;;;;;;;;;35.00;33.00;6.90;88.70;;;;;;4918545;29;8827;-68
2022/02/28 03:24:53;;;;;;;;;39.00;35.50;6.50;90.10;;;;;;4918626;29;8783;-67
2022/02/28 03:27:19;;;;;;;;;35.75;34.50;6.50;93.60;;;;;;4918333;29;8795;-71
2022/02/28 03:29:44;;;;;;;;;37.00;35.00;6.60;93.00;;;;;;4918332;29;8877;-68
2022/02/28 03:32:10;;;;;;;;;37.00;37.00;6.50;91.40;;;;;;4918087;29;8803;-70
2022/02/28 03:34:36;;;;;;;;;40.50;35.00;6.30;93.20;;;;;;4918278;29;8783;-71
2022/02/28 03:37:02;;;;;;;;;38.00;35.50;6.60;91.20;;;;;;4918309;29;8811;-70
2022/02/28 03:39:28;;;;;;;;;37.50;37.50;6.40;91.40;;;;;;4918465;29;9473;-68
2022/02/28 03:41:54;;;;;;;;;39.00;35.75;6.60;91.70;;;;;;4918108;29;8788;-70
2022/02/28 03:44:21;;;;;;;;;41.50;38.00;7.00;86.90;;;;;;4918267;29;8867;-69
2022/02/28 03:46:48;;;;;;;;;33.50;31.00;6.90;85.40;;;;;;4918155;29;8775;-72
2022/02/28 03:49:14;;;;;;;;;41.75;38.75;6.70;88.60;;;;;;4918376;29;8764;-69
2022/02/28 03:51:40;;;;;;;;;37.50;36.25;6.60;90.30;;;;;;4917936;29;8818;-68
2022/02/28 03:54:10;;;;;;;;;37.00;32.50;6.60;88.20;;;;;;4918261;29;8775;-72
2022/02/28 03:56:40;;;;;;;;;37.50;36.50;6.80;86.30;;;;;;4918065;29;8800;-72
2022/02/28 03:59:07;;;;;;;;;47.50;42.00;6.80;82.70;;;;;;4921136;29;8771;-72
2022/02/28 04:01:33;;;;;;;;;45.75;40.50;6.80;84.00;;;;;;4921998;29;8818;-68
2022/02/28 04:04:00;;;;;;;;;47.75;42.75;6.90;83.40;;;;;;4922272;29;9427;-70
2022/02/28 04:06:26;;;;;;;;;31.50;31.00;6.90;82.00;;;;;;4921963;29;8779;-69
2022/02/28 04:08:52;;;;;;;;;45.00;39.50;6.50;83.60;;;;;;4921823;29;8910;-72
2022/02/28 04:11:18;;;;;;;;;45.00;40.00;6.50;86.90;;;;;;4921241;29;8792;-68
2022/02/28 04:13:44;;;;;;;;;39.50;38.25;6.40;84.80;;;;;;4922165;29;8802;-68
2022/02/28 04:16:09;;;;;;;;;35.50;33.75;6.10;85.80;;;;;;4921952;29;8859;-70
2022/02/28 04:18:35;;;;;;;;;45.00;39.00;6.30;85.00;;;;;;4922023;29;8787;-67
2022/02/28 04:21:01;;;;;;;;;37.25;35.75;6.70;82.90;;;;;;4921647;29;8885;-68
2022/02/28 04:23:27;;;;;;;;;42.75;39.25;6.70;78.30;;;;;;4921933;29;8869;-68
2022/02/28 04:25:53;;;;;;;;;41.25;37.50;7.00;76.60;;;;;;4921781;29;8764;-69
2022/02/28 04:28:18;;;;;;;;;45.00;40.25;6.60;77.30;;;;;;4921537;29;8775;-67
2022/02/28 04:30:44;;;;;;;;;46.75;41.25;6.50;76.90;;;;;;4921474;29;8779;-67
2022/02/28 04:33:10;;;;;;;;;43.25;38.75;6.30;77.70;;;;;;4921455;29;8839;-69
2022/02/28 04:35:36;;;;;;;;;42.75;35.75;6.20;76.70;;;;;;4921352;29;9442;-69
2022/02/28 04:38:03;;;;;;;;;39.00;39.00;6.60;75.20;;;;;;4921390;29;8776;-66
2022/02/28 04:40:29;;;;;;;;;43.25;39.75;7.10;70.20;;;;;;4921588;29;8854;-68
2022/02/28 04:42:54;;;;;;;;;46.00;42.75;7.70;68.10;;;;;;4921217;29;8811;-67
2022/02/28 04:45:20;;;;;;;;;46.00;42.00;7.90;64.70;;;;;;4921415;29;8800;-67
2022/02/28 04:47:46;;;;;;;;;44.50;40.50;8.10;62.00;;;;;;4921178;29;8802;-67
2022/02/28 04:50:12;;;;;;;;;36.25;34.50;8.30;60.60;;;;;;4921134;29;8934;-67
2022/02/28 04:52:38;;;;;;;;;45.00;41.00;8.30;59.00;;;;;;4920999;29;8819;-67
2022/02/28 04:55:04;;;;;;;;;42.25;37.25;8.50;58.30;;;;;;4921007;29;8822;-68
2022/02/28 04:57:36;;;;;;;;;49.00;41.50;8.70;56.50;;;;;;4920939;29;8829;-69
2022/02/28 05:00:03;;;;;;;;;46.50;40.00;8.80;55.60;;;;;;4921010;29;8839;-69
2022/02/28 05:02:29;;;;;;;;;52.25;42.75;9.00;54.40;;;;;;4921152;29;8898;-69
2022/02/28 05:04:54;;;;;;;;;57.00;43.00;9.00;53.20;;;;;;4920987;29;9588;-69
2022/02/28 05:07:20;;;;;;;;;51.00;44.25;9.30;52.50;;;;;;4921295;29;8886;-70
2022/02/28 05:09:46;;;;;;;;;69.50;54.25;9.40;51.60;;;;;;4920100;29;8775;-69
2022/02/28 05:12:12;;;;;;;;;49.25;42.50;9.30;51.30;;;;;;4919268;29;8807;-68
2022/02/28 05:14:38;;;;;;;;;36.75;36.75;9.20;50.60;;;;;;4920928;29;8792;-69
2022/02/28 05:17:04;;;;;;;;;39.00;34.75;8.90;51.10;;;;;;4920852;29;8786;-69
2022/02/28 05:19:29;;;;;;;;;34.50;33.50;8.40;51.70;;;;;;4920245;29;8910;-70
2022/02/28 05:21:56;;;;;;;;;33.75;29.50;8.70;51.70;;;;;;4920700;29;8929;-68
2022/02/28 05:24:23;;;;;;;;;38.00;35.00;8.10;52.70;;;;;;4920068;29;8811;-69
2022/02/28 05:26:49;;;;;;;;;32.00;29.50;8.30;52.10;;;;;;4919535;29;8786;-69
2022/02/28 05:29:15;;;;;;;;;33.00;32.00;7.40;54.80;;;;;;4919851;29;8772;-69
2022/02/28 05:31:41;;;;;;;;;38.25;38.25;6.90;57.50;;;;;;4919751;29;9422;-68
2022/02/28 05:34:07;;;;;;;;;35.25;33.75;6.90;57.00;;;;;;4919272;29;8815;-69
2022/02/28 05:36:32;;;;;;;;;37.50;36.00;6.90;57.00;;;;;;4919247;29;8814;-68
2022/02/28 05:38:58;;;;;;;;;22.00;20.00;7.20;57.00;;;;;;4919108;29;8881;-69
2022/02/28 05:41:24;;;;;;;;;41.25;39.00;6.80;58.20;;;;;;4918821;29;8812;-68
2022/02/28 05:43:50;;;;;;;;;35.25;34.50;6.90;58.20;;;;;;4919245;29;8843;-68
2022/02/28 05:46:16;;;;;;;;;38.75;37.25;6.50;59.00;;;;;;4919553;29;8827;-67
2022/02/28 05:48:42;;;;;;;;;37.00;37.00;6.40;59.10;;;;;;4919659;29;8855;-68
2022/02/28 05:51:07;;;;;;;;;43.75;41.25;6.20;60.50;;;;;;4919866;29;8810;-68
2022/02/28 05:53:33;;;;;;;;;38.75;32.50;5.90;61.40;;;;;;4920435;29;8945;-66
2022/02/28 05:55:59;;;;;;;;;38.75;35.75;5.70;62.20;;;;;;4919897;29;8767;-66
2022/02/28 05:58:25;;;;;;;;;41.75;39.00;6.40;61.40;;;;;;4919988;29;8898;-64
2022/02/28 06:00:51;;;;;;;;;53.50;41.00;6.50;59.80;;;;;;4919818;29;8779;-66
2022/02/28 06:03:16;;;;;;;;;57.00;46.75;7.00;58.30;;;;;;4919502;29;8827;-66
2022/02/28 06:05:42;;;;;;;;;51.25;44.25;6.90;58.50;;;;;;4919659;29;8814;-65
2022/02/28 06:08:08;;;;;;;;;42.00;40.75;7.20;57.50;;;;;;4919632;29;8779;-64
2022/02/28 06:10:34;;;;;;;;;51.00;44.75;7.40;56.60;;;;;;4917452;29;8818;-65
2022/02/28 06:12:59;;;;;;;;;61.25;47.00;7.60;55.20;;;;;;4918926;29;8862;-65
2022/02/28 06:15:25;;;;;;;;;52.00;44.75;7.50;55.60;;;;;;4919293;29;8866;-65
2022/02/28 06:17:51;;;;;;;;;39.50;35.25;7.50;56.50;;;;;;4919329;29;8796;-65
2022/02/28 06:20:17;;;;;;;;;46.00;41.25;7.20;56.80;;;;;;4919449;29;8768;-66
2022/02/28 06:22:44;;;;;;;;;47.25;42.00;7.40;56.80;;;;;;4918530;29;8834;-64
2022/02/28 06:25:10;;;;;;;;;39.25;32.75;6.70;58.60;;;;;;4919405;29;8767;-65
2022/02/28 06:27:35;;;;;;;;;42.75;39.50;6.30;61.20;;;;;;4919351;29;8779;-65
2022/02/28 06:30:01;;;;;;;;;50.75;44.00;6.30;61.80;;;;;;4919366;29;8814;-64
2022/02/28 06:32:27;;;;;;;;;50.50;40.00;6.20;62.40;;;;;;4919160;29;8776;-64
2022/02/28 06:34:55;;;;;;;;;53.50;43.00;6.20;63.70;;;;;;4919210;29;9445;-64
2022/02/28 06:37:21;;;;;;;;;51.50;46.00;6.40;62.70;;;;;;4919176;29;8905;-64
2022/02/28 06:39:47;;;;;;;;;55.25;46.00;6.70;60.80;;;;;;4919108;29;8783;-64
2022/02/28 06:42:15;;;;;;;;;47.25;41.25;6.90;60.50;;;;;;4919141;29;8768;-64
2022/02/28 06:44:41;;;;;;;;;50.50;44.25;7.30;59.00;;;;;;4919249;29;8830;-64
2022/02/28 06:47:07;;;;;;;;;53.75;44.25;7.50;58.00;;;;;;4918614;29;8779;-64
2022/02/28 06:49:33;;;;;;;;;61.50;50.00;7.70;56.50;;;;;;4918850;29;8779;-65
2022/02/28 06:51:59;;;;;;;;;46.25;39.50;8.00;55.50;;;;;;4918766;29;8803;-64
2022/02/28 06:54:24;;;;;;;;;49.00;43.00;8.00;54.50;;;;;;4918793;29;8779;-66
2022/02/28 06:56:50;;;;;;;;;56.25;46.25;7.80;54.30;;;;;;4902056;29;8799;-64
2022/02/28 06:59:16;;;;;;;;;62.00;51.25;7.40;56.20;;;;;;4918902;29;8792;-65
2022/02/28 07:01:42;;;;;;;;;62.00;48.25;7.50;56.70;;;;;;4918963;29;8800;-65
2022/02/28 07:04:07;;;;;;;;;28.25;26.50;7.30;57.30;;;;;;4918595;29;8811;-66
2022/02/28 07:06:36;;;;;;;;;46.75;41.00;7.40;56.60;;;;;;4918864;29;8810;-65
2022/02/28 07:09:05;;;;;;;;;51.75;44.50;7.50;56.00;;;;;;4918805;29;8861;-66
2022/02/28 07:11:31;;;;;;;;;55.25;45.25;7.80;55.00;;;;;;4918834;29;8863;-68
2022/02/28 07:13:57;;;;;;;;;53.75;43.00;7.30;56.20;;;;;;4918633;29;8798;-68
2022/02/28 07:16:23;;;;;;;;;61.00;48.75;7.00;57.20;;;;;;4918791;29;8818;-67
2022/02/28 07:18:49;;;;;;;;;53.50;44.75;7.10;57.40;;;;;;4918549;29;8767;-65
2022/02/28 07:21:14;;;;;;;;;53.75;46.00;7.80;56.50;;;;;;4918348;29;8787;-66
2022/02/28 07:23:40;;;;;;;;;61.50;51.00;8.10;54.50;;;;;;4918683;29;8847;-66
2022/02/28 07:26:06;;;;;;;;;58.00;48.25;8.10;54.80;;;;;;4918349;29;8779;-65
2022/02/28 07:28:32;;;;;;;;;11.50;9.75;8.30;53.70;;;;;;4918604;29;8845;-65
2022/02/28 07:30:58;;;;;;;;;57.00;47.25;8.10;53.50;;;;;;4918255;29;8790;-65
2022/02/28 07:33:24;;;;;;;;;48.00;43.75;7.90;54.80;;;;;;4917889;29;9599;-65
2022/02/28 07:35:51;;;;;;;;;42.50;40.00;7.70;55.30;;;;;;4918468;29;8949;-65
2022/02/28 07:38:17;;;;;;;;;49.25;43.00;7.60;55.30;;;;;;4918165;29;8902;-64
2022/02/28 07:40:43;;;;;;;;;51.50;44.50;6.80;57.10;;;;;;4918085;29;8811;-65
2022/02/28 07:43:09;;;;;;;;;53.25;47.25;7.20;58.10;;;;;;4918018;29;8921;-65
2022/02/28 07:45:34;;;;;;;;;61.25;49.25;7.00;57.70;;;;;;4918067;29;8775;-64
2022/02/28 07:48:00;;;;;;;;;51.50;44.75;6.60;58.80;;;;;;4918069;29;8796;-65
2022/02/28 07:50:26;;;;;;;;;43.75;40.00;6.60;59.60;;;;;;4918044;29;8874;-64
2022/02/28 07:52:52;;;;;;;;;51.75;45.50;6.50;59.80;;;;;;4918060;29;8822;-65
2022/02/28 07:55:17;;;;;;;;;56.50;47.25;6.60;60.70;;;;;;4917973;29;8874;-65
2022/02/28 07:57:43;;;;;;;;;52.50;44.25;7.00;58.40;;;;;;4917958;29;8779;-64
2022/02/28 08:00:10;;;;;;;;;47.50;42.50;7.00;58.40;;;;;;4918128;29;8810;-65
2022/02/28 08:02:36;;;;;;;;;46.75;42.00;7.20;58.30;;;;;;4917867;29;8791;-65
2022/02/28 08:05:03;;;;;;;;;43.00;40.50;7.30;58.40;;;;;;4918137;29;8815;-65
2022/02/28 08:07:29;;;;;;;;;51.00;44.75;6.90;58.50;;;;;;4918207;29;8799;-65
2022/02/28 08:09:55;;;;;;;;;55.50;44.00;6.70;59.40;;;;;;4917965;29;8772;-65
2022/02/28 08:12:21;;;;;;;;;45.50;41.25;6.80;59.80;;;;;;4917828;29;8892;-65
2022/02/28 08:14:46;;;;;;;;;43.25;35.75;6.60;60.20;;;;;;4917814;29;8775;-65
2022/02/28 08:17:12;;;;;;;;;51.50;43.75;6.60;60.60;;;;;;4918179;29;8779;-66
2022/02/28 08:19:38;;;;;;;;;47.50;40.25;7.20;59.20;;;;;;4917786;29;8794;-64
2022/02/28 08:22:04;;;;;;;;;39.25;37.00;7.80;57.00;;;;;;4917866;29;8846;-65
2022/02/28 08:24:30;;;;;;;;;46.25;42.25;7.80;56.40;;;;;;4917813;29;8838;-66
2022/02/28 08:26:56;;;;;;;;;44.50;39.25;8.00;56.20;;;;;;4917629;29;8881;-66
2022/02/28 08:29:21;;;;;;;;;50.50;40.75;7.90;54.90;;;;;;4917807;29;8779;-66
2022/02/28 08:31:47;;;;;;;;;39.25;38.00;8.40;54.40;;;;;;4917720;29;8780;-66
2022/02/28 08:34:13;;;;;;;;;32.25;30.25;7.80;54.20;;;;;;4917673;29;9473;-65
2022/02/28 08:36:39;;;;;;;;;41.50;35.75;7.70;56.60;;;;;;4917921;29;8795;-66
2022/02/28 08:39:05;;;;;;;;;32.25;29.75;6.90;57.20;;;;;;4917958;29;8795;-66
2022/02/28 08:41:31;;;;;;;;;46.75;39.25;6.70;60.10;;;;;;4917877;29;8803;-65
2022/02/28 08:43:57;;;;;;;;;39.00;38.00;7.30;60.30;;;;;;4917518;29;8826;-70
2022/02/28 08:46:23;;;;;;;;;34.25;32.75;7.80;57.50;;;;;;4920459;29;8802;-65
2022/02/28 08:48:49;;;;;;;;;36.50;34.75;7.60;56.50;;;;;;4921376;29;8791;-65
2022/02/28 08:51:15;;;;;;;;;41.25;36.00;6.90;58.50;;;;;;4921070;29;8858;-65
2022/02/28 08:53:40;;;;;;;;;33.00;29.75;6.80;60.70;;;;;;4921401;29;8823;-65
2022/02/28 08:56:06;;;;;;;;;44.50;37.50;6.60;60.20;;;;;;4921134;29;8819;-64
2022/02/28 08:58:32;;;;;;;;;41.50;34.50;6.80;61.80;;;;;;4920943;29;8890;-64
2022/02/28 09:00:58;;;;;;;;;27.75;27.00;6.70;60.20;;;;;;4920828;29;8783;-64
2022/02/28 09:03:23;;;;;;;;;39.75;37.00;6.30;61.50;;;;;;4920997;29;8990;-64
2022/02/28 09:05:49;;;;;;;;;34.75;31.25;6.90;61.20;;;;;;4920714;29;8780;-66
2022/02/28 09:08:15;;;;;;;;;37.75;35.50;6.70;62.10;;;;;;4920629;29;8874;-68
2022/02/28 09:10:41;;;;;;;;;36.00;35.50;7.00;62.90;;;;;;4920431;29;8783;-65
2022/02/28 09:13:07;;;;;;;;;37.00;36.50;7.00;61.50;;;;;;4919538;29;8808;-65
2022/02/28 09:15:35;;;;;;;;;41.00;37.50;7.70;60.30;;;;;;4919432;29;8787;-66
2022/02/28 09:18:01;;;;;;;;;39.50;38.25;8.30;58.00;;;;;;4919551;29;8792;-67
2022/02/28 09:20:26;;;;;;;;;48.75;42.00;7.90;55.60;;;;;;4919567;29;9449;-67
2022/02/28 09:22:52;;;;;;;;;37.75;37.00;8.40;56.00;;;;;;4919381;29;8808;-68
2022/02/28 09:25:18;;;;;;;;;41.75;38.50;9.00;53.40;;;;;;4919183;29;8798;-66
2022/02/28 09:27:44;;;;;;;;;37.25;34.25;9.10;53.30;;;;;;4919260;29;9028;-66
2022/02/28 09:30:11;;;;;;;;;31.50;30.25;8.70;52.40;;;;;;4917405;29;8823;-68
2022/02/28 09:32:37;;;;;;;;;38.00;34.75;7.60;56.10;;;;;;4920448;29;9536;-75
2022/02/28 09:35:03;;;;;;;;;54.00;43.25;7.60;59.70;;;;;;4903621;29;8926;-70
2022/02/28 09:37:29;;;;;;;;;45.50;39.00;8.40;57.90;;;;;;4920261;29;8859;-68
2022/02/28 09:39:55;;;;;;;;;42.00;39.25;8.40;56.70;;;;;;4920153;29;9410;-69
2022/02/28 09:42:21;;;;;;;;;44.75;38.50;8.40;56.90;;;;;;4920481;29;8779;-72
2022/02/28 09:44:47;;;;;;;;;34.75;29.00;8.60;55.90;;;;;;4919295;29;8807;-69
2022/02/28 09:47:13;;;;;;;;;43.00;39.00;8.50;56.30;;;;;;4919488;29;8902;-68
2022/02/28 09:49:39;;;;;;;;;39.25;37.75;9.40;53.80;;;;;;4920094;29;8902;-73
2022/02/28 09:52:05;;;;;;;;;38.75;36.50;9.10;53.10;;;;;;4920008;29;8886;-76
2022/02/28 09:54:32;;;;;;;;;42.00;38.00;9.20;53.50;;;;;;4920068;29;8799;-70
2022/02/28 09:57:00;;;;;;;;;46.00;38.50;9.80;51.70;;;;;;4919925;29;8874;-72
2022/02/28 09:59:25;;;;;;;;;51.00;39.75;9.80;50.70;;;;;;4919997;29;8955;-75
2022/02/28 10:01:51;;;;;;;;;38.75;35.75;9.00;52.60;;;;;;4919801;29;8890;-75
2022/02/28 10:04:17;;;;;;;;;48.00;40.00;9.30;54.60;;;;;;4918371;29;8834;-73
2022/02/28 10:06:44;;;;;;;;;41.25;38.25;9.30;52.90;;;;;;4920025;29;8784;-73
2022/02/28 10:09:17;;;;;;;;;31.25;31.25;9.10;52.40;;;;;;4919894;29;8787;-72
2022/02/28 10:11:46;;;;;;;;;43.50;36.00;8.10;55.30;;;;;;4919676;29;8806;-70
2022/02/28 10:14:12;;;;;;;;;36.00;35.50;7.90;57.80;;;;;;4919703;29;8854;-68
2022/02/28 10:16:57;;;;;;;;;33.75;32.00;7.80;58.20;;;;;;4919834;29;8776;-68
2022/02/28 10:19:26;;;;;;;;;44.50;36.00;8.10;58.00;;;;;;4919594;29;8775;-72
2022/02/28 10:21:54;;;;;;;;;31.75;29.50;8.70;56.60;;;;;;4919455;29;8811;-70
2022/02/28 10:24:26;;;;;;;;;36.00;33.50;8.10;56.80;;;;;;4919593;29;8942;-72
2022/02/28 10:26:57;;;;;;;;;26.50;25.00;8.00;57.70;;;;;;4919446;29;8768;-71
2022/02/28 10:29:23;;;;;;;;;37.75;35.25;7.80;56.80;;;;;;4918689;29;8786;-72
2022/02/28 10:31:49;;;;;;;;;34.00;32.00;8.20;57.60;;;;;;4919115;29;8900;-77
2022/02/28 10:34:18;;;;;;;;;32.75;30.25;8.70;54.20;;;;;;4918951;29;9612;-77
2022/02/28 10:36:46;;;;;;;;;37.00;35.00;8.50;55.00;;;;;;4919174;29;8896;-80
2022/02/28 10:39:12;;;;;;;;;37.25;34.75;9.40;55.00;;;;;;4918976;29;8868;-70
2022/02/28 10:41:41;;;;;;;;;26.75;26.75;9.60;53.00;;;;;;4918823;29;8788;-74
2022/02/28 10:44:13;;;;;;;;;34.00;32.75;12.00;45.70;;;;;;4919159;29;8815;-76
2022/02/28 10:46:42;;;;;;;;;35.33;31.67;15.80;39.50;;;;;;4919394;29;8787;-75
2022/02/28 10:49:15;;;;;;;;;33.00;31.33;13.30;39.20;;;;;;4918336;29;8782;-72
2022/02/28 10:51:55;;;;;;;;;31.67;31.67;13.10;41.10;;;;;;4918836;29;8807;-74
2022/02/28 10:54:26;;;;;;;;;37.67;33.67;13.60;40.30;;;;;;4902154;29;8825;-74
2022/02/28 10:57:10;;;;;;;;;34.67;32.00;13.40;41.80;;;;;;4918806;29;8784;-70
2022/02/28 10:59:50;;;;;;;;;41.33;36.33;13.50;39.50;;;;;;4918991;29;8772;-73
2022/02/28 11:02:34;;;;;;;;;34.67;32.00;12.60;41.80;;;;;;4918727;29;8807;-78
2022/02/28 11:05:07;;;;;;;;;40.00;36.00;13.80;42.00;;;;;;4918696;29;8807;-78
2022/02/28 11:07:43;;;;;;;;;40.25;34.50;13.30;41.30;;;;;;4917525;29;8799;-70
2022/02/28 11:10:11;;;;;;;;;36.33;33.00;14.90;41.10;;;;;;4918395;29;8877;-70
2022/02/28 11:12:37;;;;;;;;;42.33;37.33;19.30;32.00;;;;;;4917458;29;8887;-70
2022/02/28 11:15:15;;;;;;;;;36.67;33.33;21.50;29.70;;;;;;4918126;29;8811;-75
2022/02/28 11:17:43;;;;;;;;;33.67;32.33;24.10;25.70;;;;;;4919501;29;8819;-73
2022/02/28 11:20:12;;;;;;;;;31.67;30.00;27.70;23.70;;;;;;4918434;29;8850;-72
2022/02/28 11:22:39;;;;;;;;;29.67;27.67;26.90;22.80;;;;;;4918080;29;8823;-74
2022/02/28 11:25:10;;;;;;;;;30.00;30.00;25.70;22.80;;;;;;4917534;29;9469;-70
2022/02/28 11:27:37;;;;;;;;;31.00;30.00;21.10;25.60;;;;;;4916719;29;8803;-70
2022/02/28 11:30:07;;;;;;;;;27.00;27.00;20.80;27.30;;;;;;4918301;29;9488;-72
2022/02/28 11:32:34;;;;;;;;;32.00;30.67;19.80;27.50;;;;;;4918095;29;8822;-67
2022/02/28 11:35:37;;;;;;;;;29.33;28.00;18.40;29.10;;;;;;4918362;29;8771;-73
2022/02/28 11:38:09;;;;;;;;;40.00;35.00;16.30;32.60;;;;;;4917917;29;8889;-69
2022/02/28 11:40:35;;;;;;;;;32.00;31.33;15.50;32.90;;;;;;4918247;29;8801;-68
2022/02/28 11:43:12;;;;;;;;;42.67;38.00;15.00;33.90;;;;;;4918052;29;8785;-70
2022/02/28 11:45:47;;;;;;;;;31.67;30.33;14.40;35.50;;;;;;4918408;29;8794;-69
2022/02/28 11:48:22;;;;;;;;;40.50;35.25;14.20;36.20;;;;;;4918322;29;9476;-69
2022/02/28 11:50:52;;;;;;;;;33.25;31.25;14.30;36.40;;;;;;4918093;29;8800;-68
2022/02/28 11:53:43;;;;;;;;;34.25;30.50;13.80;36.50;;;;;;4918386;29;8833;-73
2022/02/28 11:56:18;;;;;;;;;31.25;30.00;13.30;36.70;;;;;;4918287;29;8801;-72
2022/02/28 11:58:50;;;;;;;;;33.75;32.00;13.30;36.70;;;;;;4918020;29;8770;-68
2022/02/28 12:01:18;;;;;;;;;30.25;30.25;12.30;37.40;;;;;;4918075;29;8789;-67
2022/02/28 12:04:07;;;;;;;;;36.25;34.25;11.70;40.30;;;;;;4918199;29;8920;-68
2022/02/28 12:06:51;;;;;;;;;34.25;31.25;11.50;41.30;;;;;;4912216;29;8801;-68
2022/02/28 12:12:15;;;;;;;;;32.00;31.25;12.80;40.20;;;;;;4918202;29;8766;-68
2022/02/28 12:14:56;;;;;;;;;33.00;32.00;13.90;38.00;;;;;;4918169;29;8798;-68
2022/02/28 12:17:39;;;;;;;;;30.50;30.25;13.30;36.80;;;;;;4917829;29;8793;-68
2022/02/28 12:20:14;;;;;;;;;29.33;29.33;16.00;35.10;;;;;;4902718;29;8831;-67
2022/02/28 12:23:05;;;;;;;;;36.67;33.00;16.20;32.20;;;;;;4921392;29;9568;-66
2022/02/28 12:25:31;;;;;;;;;42.25;37.25;15.20;33.80;;;;;;4892284;29;8825;-66
2022/02/28 12:27:57;;;;;;;;;31.00;31.00;15.10;35.70;;;;;;4916205;29;8810;-66
2022/02/28 12:30:39;;;;;;;;;38.50;33.75;16.30;31.80;;;;;;4918729;29;8892;-65
2022/02/28 12:33:06;;;;;;;;;42.00;36.75;16.30;32.40;;;;;;4920103;29;8852;-66
2022/02/28 12:35:48;;;;;;;;;34.00;30.67;16.40;32.70;;;;;;4920390;29;8866;-66
2022/02/28 12:38:14;;;;;;;;;39.67;36.67;18.70;31.50;;;;;;4917502;29;8811;-66
2022/02/28 12:40:50;;;;;;;;;31.00;30.33;22.70;27.00;;;;;;4919886;29;8790;-67
2022/02/28 12:43:21;;;;;;;;;33.00;30.67;26.00;23.60;;;;;;4919509;29;8823;-67
2022/02/28 12:45:49;;;;;;;;;26.00;25.00;26.80;21.20;;;;;;4917735;29;8768;-67
2022/02/28 12:48:19;;;;;;;;;28.00;25.00;23.60;21.50;;;;;;4910343;29;8778;-66
2022/02/28 12:50:47;;;;;;;;;30.00;27.33;21.40;23.00;;;;;;4919661;29;8793;-66